Time,TemperatureF,DewpointF,PressureIn,WindDirection,WindDirectionDegrees,WindSpeedMPH,WindSpeedGustMPH,Humidity,HourlyPrecipIn,Conditions,Clouds,dailyrainin,SoftwareType,DateUTC
2013-02-27 00:00:00,34.2,32.9,29.92,East,86,5.0,7.0,95,0.00,,,0.13,Wunderground v.1.15,2013-02-27 05:00:00,
2013-02-27 00:01:00,34.2,32.9,29.93,ESE,103,6.0,7.0,95,0.00,,,0.13,Wunderground v.1.15,2013-02-27 05:01:00,
2013-02-27 00:02:00,34.2,32.9,29.93,NNE,28,6.0,7.0,95,0.00,,,0.00,Wunderground v.1.15,2013-02-27 05:02:00,
2013-02-27 00:05:00,34.2,32.9,29.93,ENE,75,6.0,15.0,95,0.00,,,0.00,Wunderground v.1.15,2013-02-27 05:05:00,
2013-02-27 00:11:00,34.2,32.9,29.92,ENE,65,5.0,6.0,95,0.00,,,0.01,Wunderground v.1.15,2013-02-27 05:11:00,
2013-02-27 00:17:00,34.3,33.0,29.92,ENE,77,5.0,9.0,95,0.09,,,0.02,Wunderground v.1.15,2013-02-27 05:17:00,
2013-02-27 00:22:00,34.3,33.0,29.92,East,96,6.0,9.0,95,0.09,,,0.02,Wunderground v.1.15,2013-02-27 05:22:00,
2013-02-27 00:28:00,34.3,33.0,29.91,East,94,5.0,9.0,95,0.22,,,0.04,Wunderground v.1.15,2013-02-27 05:28:00,
2013-02-27 00:34:00,34.4,33.4,29.90,East,90,5.0,9.0,96,0.17,,,0.06,Wunderground v.1.15,2013-02-27 05:34:00,
2013-02-27 00:39:00,34.4,33.4,29.90,East,90,4.0,9.0,96,0.11,,,0.06,Wunderground v.1.15,2013-02-27 05:39:00,
2013-02-27 00:45:00,34.5,33.5,29.91,East,95,4.0,5.0,96,0.10,,,0.07,Wunderground v.1.15,2013-02-27 05:45:00,
2013-02-27 00:51:00,34.5,33.5,29.92,East,85,4.0,8.0,96,0.07,,,0.08,Wunderground v.1.15,2013-02-27 05:51:00,
2013-02-27 00:56:00,34.7,33.7,29.92,East,94,5.0,11.0,96,0.18,,,0.10,Wunderground v.1.15,2013-02-27 05:56:00,
2013-02-27 01:02:00,34.7,33.7,29.91,East,84,6.0,7.0,96,0.24,,,0.12,Wunderground v.1.15,2013-02-27 06:02:00,
2013-02-27 01:07:00,34.8,33.8,29.92,ENE,70,5.0,7.0,96,0.25,,,0.14,Wunderground v.1.15,2013-02-27 06:07:00,
2013-02-27 01:14:00,34.9,33.9,29.91,East,84,5.0,7.0,96,0.16,,,0.16,Wunderground v.1.15,2013-02-27 06:14:00,
2013-02-27 01:20:00,35.0,34.0,29.90,East,98,5.0,5.0,96,0.14,,,0.17,Wunderground v.1.15,2013-02-27 06:20:00,
2013-02-27 01:25:00,35.1,34.1,29.90,ESE,106,5.0,7.0,96,0.18,,,0.19,Wunderground v.1.15,2013-02-27 06:25:00,
2013-02-27 01:30:00,35.1,34.1,29.90,ENE,78,5.0,5.0,96,0.19,,,0.21,Wunderground v.1.15,2013-02-27 06:30:00,
2013-02-27 01:36:00,35.2,34.2,29.90,NNW,346,5.0,7.0,96,0.20,,,0.22,Wunderground v.1.15,2013-02-27 06:36:00,
2013-02-27 01:42:00,35.3,34.3,29.89,ESE,105,4.0,4.0,96,0.18,,,0.24,Wunderground v.1.15,2013-02-27 06:42:00,
2013-02-27 01:48:00,35.3,34.3,29.88,ENE,71,5.0,8.0,96,0.09,,,0.25,Wunderground v.1.15,2013-02-27 06:48:00,
2013-02-27 01:54:00,35.4,34.4,29.87,ENE,74,5.0,8.0,96,0.07,,,0.25,Wunderground v.1.15,2013-02-27 06:54:00,
2013-02-27 02:00:00,35.4,34.4,29.86,East,91,4.0,4.0,96,0.04,,,0.25,Wunderground v.1.15,2013-02-27 07:00:00,
2013-02-27 02:06:00,35.4,34.4,29.86,ENE,71,4.0,7.0,96,0.00,,,0.25,Wunderground v.1.15,2013-02-27 07:06:00,
2013-02-27 02:11:00,35.5,34.5,29.85,East,86,4.0,5.0,96,0.00,,,0.25,Wunderground v.1.15,2013-02-27 07:11:00,
2013-02-27 02:16:00,35.5,34.5,29.85,ENE,71,4.0,5.0,96,0.00,,,0.26,Wunderground v.1.15,2013-02-27 07:16:00,
2013-02-27 02:22:00,35.6,34.6,29.85,ENE,78,3.0,4.0,96,0.00,,,0.26,Wunderground v.1.15,2013-02-27 07:22:00,
2013-02-27 02:28:00,35.7,34.7,29.84,ESE,118,4.0,7.0,96,0.06,,,0.27,Wunderground v.1.15,2013-02-27 07:28:00,
2013-02-27 02:33:00,35.8,34.8,29.84,East,96,5.0,8.0,96,0.07,,,0.28,Wunderground v.1.15,2013-02-27 07:33:00,
2013-02-27 02:39:00,35.8,34.8,29.83,ESE,115,4.0,8.0,96,0.07,,,0.28,Wunderground v.1.15,2013-02-27 07:39:00,
2013-02-27 02:44:00,35.9,34.9,29.83,ENE,75,4.0,7.0,96,0.08,,,0.29,Wunderground v.1.15,2013-02-27 07:44:00,
2013-02-27 02:50:00,36.0,35.0,29.82,ENE,73,5.0,5.0,96,0.06,,,0.30,Wunderground v.1.15,2013-02-27 07:50:00,
2013-02-27 02:55:00,36.1,35.1,29.81,East,90,4.0,6.0,96,0.06,,,0.30,Wunderground v.1.15,2013-02-27 07:55:00,
2013-02-27 03:00:00,36.2,35.2,29.81,ENE,70,5.0,5.0,96,0.06,,,0.30,Wunderground v.1.15,2013-02-27 08:00:00,
2013-02-27 03:06:00,36.3,35.3,29.80,East,84,5.0,5.0,96,0.04,,,0.30,Wunderground v.1.15,2013-02-27 08:06:00,
2013-02-27 03:12:00,36.3,35.3,29.79,WNW,286,3.0,5.0,96,0.00,,,0.30,Wunderground v.1.15,2013-02-27 08:12:00,
2013-02-27 03:18:00,36.6,35.8,29.80,ENE,71,4.0,7.0,97,0.00,,,0.30,Wunderground v.1.15,2013-02-27 08:18:00,
2013-02-27 03:23:00,36.7,35.9,29.79,ENE,73,5.0,7.0,97,0.00,,,0.30,Wunderground v.1.15,2013-02-27 08:23:00,
2013-02-27 03:29:00,36.9,36.1,29.78,ENE,75,5.0,9.0,97,0.00,,,0.30,Wunderground v.1.15,2013-02-27 08:29:00,
2013-02-27 03:35:00,37.2,36.4,29.78,NE,34,5.0,7.0,97,0.00,,,0.30,Wunderground v.1.15,2013-02-27 08:35:00,
2013-02-27 03:41:00,37.5,36.7,29.78,ENE,63,5.0,5.0,97,0.00,,,0.31,Wunderground v.1.15,2013-02-27 08:41:00,
2013-02-27 03:47:00,37.7,36.9,29.77,ENE,59,5.0,7.0,97,0.00,,,0.31,Wunderground v.1.15,2013-02-27 08:47:00,
2013-02-27 03:53:00,37.7,36.9,29.77,East,83,4.0,5.0,97,0.00,,,0.32,Wunderground v.1.15,2013-02-27 08:53:00,
2013-02-27 03:59:00,37.8,37.0,29.76,ENE,69,3.0,5.0,97,0.00,,,0.32,Wunderground v.1.15,2013-02-27 08:59:00,
2013-02-27 04:05:00,37.8,37.0,29.76,ENE,59,4.0,9.0,97,0.00,,,0.32,Wunderground v.1.15,2013-02-27 09:05:00,
2013-02-27 04:11:00,37.9,37.1,29.76,ENE,76,5.0,7.0,97,0.00,,,0.33,Wunderground v.1.15,2013-02-27 09:11:00,
2013-02-27 04:16:00,38.0,37.2,29.76,East,101,5.0,10.0,97,0.21,,,0.34,Wunderground v.1.15,2013-02-27 09:16:00,
2013-02-27 04:22:00,38.1,37.3,29.76,NE,54,3.0,4.0,97,0.12,,,0.35,Wunderground v.1.15,2013-02-27 09:22:00,
2013-02-27 04:27:00,38.2,37.4,29.76,East,90,4.0,7.0,97,0.07,,,0.35,Wunderground v.1.15,2013-02-27 09:27:00,
2013-02-27 04:33:00,38.3,37.5,29.75,NE,37,4.0,5.0,97,0.06,,,0.36,Wunderground v.1.15,2013-02-27 09:33:00,
2013-02-27 04:39:00,38.5,37.7,29.75,NE,53,4.0,5.0,97,0.06,,,0.37,Wunderground v.1.15,2013-02-27 09:39:00,
2013-02-27 04:44:00,38.6,37.8,29.74,East,84,4.0,10.0,97,0.06,,,0.37,Wunderground v.1.15,2013-02-27 09:44:00,
2013-02-27 04:50:00,38.8,38.0,29.74,SE,130,5.0,6.0,97,0.05,,,0.37,Wunderground v.1.15,2013-02-27 09:50:00,
2013-02-27 04:55:00,38.9,38.1,29.73,East,99,5.0,6.0,97,0.00,,,0.37,Wunderground v.1.15,2013-02-27 09:55:00,
2013-02-27 05:00:00,38.9,38.1,29.73,WNW,299,5.0,5.0,97,0.00,,,0.38,Wunderground v.1.15,2013-02-27 10:00:00,
2013-02-27 05:06:00,39.0,38.2,29.73,ENE,68,5.0,8.0,97,0.06,,,0.39,Wunderground v.1.15,2013-02-27 10:06:00,
2013-02-27 05:12:00,39.1,38.3,29.72,ENE,64,6.0,10.0,97,0.15,,,0.40,Wunderground v.1.15,2013-02-27 10:12:00,
2013-02-27 05:17:00,39.2,38.4,29.72,ENE,65,6.0,10.0,97,0.10,,,0.41,Wunderground v.1.15,2013-02-27 10:17:00,
2013-02-27 05:23:00,39.4,38.6,29.71,ESE,102,6.0,7.0,97,0.07,,,0.41,Wunderground v.1.15,2013-02-27 10:23:00,
2013-02-27 05:29:00,39.6,38.8,29.71,NNE,12,5.0,8.0,97,0.06,,,0.42,Wunderground v.1.15,2013-02-27 10:29:00,
2013-02-27 05:35:00,39.8,39.0,29.71,ENE,68,4.0,11.0,97,0.06,,,0.42,Wunderground v.1.15,2013-02-27 10:35:00,
2013-02-27 05:41:00,40.0,39.2,29.70,East,84,5.0,9.0,97,0.04,,,0.42,Wunderground v.1.15,2013-02-27 10:41:00,
2013-02-27 05:46:00,40.2,39.4,29.70,NE,49,5.0,9.0,97,0.00,,,0.42,Wunderground v.1.15,2013-02-27 10:46:00,
2013-02-27 05:52:00,40.4,39.6,29.69,East,80,6.0,8.0,97,0.00,,,0.43,Wunderground v.1.15,2013-02-27 10:52:00,
2013-02-27 05:58:00,40.6,39.8,29.69,SE,140,6.0,8.0,97,0.00,,,0.43,Wunderground v.1.15,2013-02-27 10:58:00,
2013-02-27 06:03:00,40.8,40.0,29.68,East,94,5.0,9.0,97,0.00,,,0.43,Wunderground v.1.15,2013-02-27 11:03:00,
2013-02-27 06:08:00,41.2,40.4,29.69,East,85,6.0,13.0,97,0.38,,,0.46,Wunderground v.1.15,2013-02-27 11:08:00,
2013-02-27 06:14:00,41.4,40.6,29.68,East,88,7.0,9.0,97,0.21,,,0.47,Wunderground v.1.15,2013-02-27 11:14:00,
2013-02-27 06:19:00,41.4,40.6,29.68,NNW,342,7.0,13.0,97,0.18,,,0.49,Wunderground v.1.15,2013-02-27 11:19:00,
2013-02-27 06:24:00,41.5,40.7,29.67,East,87,6.0,7.0,97,0.17,,,0.51,Wunderground v.1.15,2013-02-27 11:24:00,
2013-02-27 06:30:00,41.5,40.7,29.67,East,80,6.0,10.0,97,0.28,,,0.54,Wunderground v.1.15,2013-02-27 11:30:00,
2013-02-27 06:35:00,41.4,40.6,29.67,ENE,71,7.0,13.0,97,0.26,,,0.56,Wunderground v.1.15,2013-02-27 11:35:00,
2013-02-27 06:41:00,41.4,40.6,29.67,East,86,7.0,8.0,97,0.16,,,0.58,Wunderground v.1.15,2013-02-27 11:41:00,
2013-02-27 06:46:00,41.3,40.5,29.67,ENE,73,6.0,9.0,97,0.11,,,0.58,Wunderground v.1.15,2013-02-27 11:46:00,
2013-02-27 06:52:00,41.3,40.5,29.67,ENE,76,6.0,7.0,97,0.06,,,0.59,Wunderground v.1.15,2013-02-27 11:52:00,
2013-02-27 06:57:00,41.2,40.4,29.66,East,90,6.0,9.0,97,0.06,,,0.59,Wunderground v.1.15,2013-02-27 11:57:00,
2013-02-27 07:03:00,41.3,40.5,29.66,East,93,6.0,11.0,97,0.07,,,0.60,Wunderground v.1.15,2013-02-27 12:03:00,
2013-02-27 07:08:00,41.4,40.6,29.66,ESE,103,7.0,11.0,97,0.06,,,0.60,Wunderground v.1.15,2013-02-27 12:08:00,
2013-02-27 07:14:00,41.5,40.7,29.66,ENE,74,8.0,12.0,97,0.04,,,0.60,Wunderground v.1.15,2013-02-27 12:14:00,
2013-02-27 07:19:00,41.6,40.8,29.66,ENE,71,7.0,12.0,97,0.00,,,0.60,Wunderground v.1.15,2013-02-27 12:19:00,
2013-02-27 07:25:00,41.9,41.1,29.65,East,83,6.0,10.0,97,0.00,,,0.61,Wunderground v.1.15,2013-02-27 12:25:00,
2013-02-27 07:30:00,42.2,41.7,29.65,East,86,7.0,7.0,98,0.00,,,0.61,Wunderground v.1.15,2013-02-27 12:30:00,
2013-02-27 07:36:00,42.3,41.5,29.65,ESE,119,7.0,11.0,97,0.00,,,0.61,Wunderground v.1.15,2013-02-27 12:36:00,
2013-02-27 07:42:00,42.4,41.6,29.65,ESE,109,8.0,10.0,97,0.04,,,0.62,Wunderground v.1.15,2013-02-27 12:42:00,
2013-02-27 07:48:00,42.5,41.7,29.65,NE,44,7.0,10.0,97,0.04,,,0.62,Wunderground v.1.15,2013-02-27 12:48:00,
2013-02-27 07:54:00,42.7,41.9,29.65,ENE,75,7.0,13.0,97,0.05,,,0.63,Wunderground v.1.15,2013-02-27 12:54:00,
2013-02-27 07:59:00,42.9,42.1,29.64,East,83,8.0,13.0,97,0.05,,,0.63,Wunderground v.1.15,2013-02-27 12:59:00,
2013-02-27 08:04:00,43.1,42.3,29.64,ENE,59,9.0,15.0,97,0.05,,,0.63,Wunderground v.1.15,2013-02-27 13:04:00,
2013-02-27 08:09:00,43.4,42.6,29.63,East,91,9.0,15.0,97,0.04,,,0.64,Wunderground v.1.15,2013-02-27 13:09:00,
2013-02-27 08:15:00,43.6,42.8,29.63,ENE,60,10.0,16.0,97,0.13,,,0.65,Wunderground v.1.15,2013-02-27 13:15:00,
2013-02-27 08:21:00,43.6,42.5,29.62,East,82,10.0,10.0,96,0.11,,,0.66,Wunderground v.1.15,2013-02-27 13:21:00,
2013-02-27 08:26:00,43.5,42.4,29.63,ENE,74,9.0,12.0,96,0.09,,,0.67,Wunderground v.1.15,2013-02-27 13:26:00,
2013-02-27 08:32:00,43.5,42.4,29.62,ESE,111,9.0,15.0,96,0.06,,,0.67,Wunderground v.1.15,2013-02-27 13:32:00,
2013-02-27 08:38:00,43.5,42.4,29.61,East,86,9.0,16.0,96,0.04,,,0.67,Wunderground v.1.15,2013-02-27 13:38:00,
2013-02-27 08:44:00,43.6,42.5,29.61,ENE,71,10.0,15.0,96,0.00,,,0.67,Wunderground v.1.15,2013-02-27 13:44:00,
2013-02-27 08:49:00,43.6,42.5,29.60,East,87,9.0,15.0,96,0.00,,,0.68,Wunderground v.1.15,2013-02-27 13:49:00,
2013-02-27 08:54:00,43.7,42.6,29.60,ESE,110,9.0,15.0,96,0.00,,,0.68,Wunderground v.1.15,2013-02-27 13:54:00,
2013-02-27 09:00:00,43.9,42.8,29.60,ESE,119,10.0,10.0,96,0.32,,,0.70,Wunderground v.1.15,2013-02-27 14:00:00,
2013-02-27 09:06:00,44.1,43.0,29.60,ENE,65,10.0,11.0,96,0.15,,,0.71,Wunderground v.1.15,2013-02-27 14:06:00,
2013-02-27 09:12:00,44.2,43.1,29.59,East,95,11.0,15.0,96,0.06,,,0.71,Wunderground v.1.15,2013-02-27 14:12:00,
2013-02-27 09:19:00,44.2,43.1,29.59,ESE,109,10.0,16.0,96,0.05,,,0.72,Wunderground v.1.15,2013-02-27 14:19:00,
2013-02-27 09:25:00,44.2,43.1,29.59,ENE,69,9.0,16.0,96,0.05,,,0.72,Wunderground v.1.15,2013-02-27 14:25:00,
2013-02-27 09:31:00,44.2,43.1,29.58,ENE,78,9.0,9.0,96,0.00,,,0.72,Wunderground v.1.15,2013-02-27 14:31:00,
2013-02-27 09:37:00,44.2,43.1,29.59,ESE,102,9.0,10.0,96,0.00,,,0.72,Wunderground v.1.15,2013-02-27 14:37:00,
2013-02-27 09:43:00,44.2,42.9,29.59,East,87,8.0,10.0,95,0.00,,,0.72,Wunderground v.1.15,2013-02-27 14:43:00,
2013-02-27 09:48:00,44.1,42.8,29.59,ENE,69,8.0,10.0,95,0.00,,,0.72,Wunderground v.1.15,2013-02-27 14:48:00,
2013-02-27 09:54:00,44.0,42.9,29.59,ESE,105,7.0,11.0,96,0.25,,,0.75,Wunderground v.1.15,2013-02-27 14:54:00,
2013-02-27 10:00:00,43.9,42.8,29.58,ESE,123,8.0,8.0,96,0.20,,,0.77,Wunderground v.1.15,2013-02-27 15:00:00,
2013-02-27 10:06:00,43.7,42.6,29.58,NE,51,9.0,10.0,96,0.08,,,0.77,Wunderground v.1.15,2013-02-27 15:06:00,
2013-02-27 10:11:00,43.7,42.6,29.58,East,94,9.0,9.0,96,0.08,,,0.78,Wunderground v.1.15,2013-02-27 15:11:00,
2013-02-27 10:17:00,43.6,42.5,29.58,East,97,9.0,14.0,96,0.05,,,0.78,Wunderground v.1.15,2013-02-27 15:17:00,
2013-02-27 10:23:00,43.6,42.5,29.58,ENE,70,10.0,13.0,96,0.05,,,0.79,Wunderground v.1.15,2013-02-27 15:23:00,
2013-02-27 10:28:00,43.5,42.4,29.59,NE,55,9.0,13.0,96,0.11,,,0.80,Wunderground v.1.15,2013-02-27 15:28:00,
2013-02-27 10:34:00,43.5,42.4,29.58,ENE,74,8.0,11.0,96,0.06,,,0.80,Wunderground v.1.15,2013-02-27 15:34:00,
2013-02-27 10:39:00,43.4,42.3,29.59,ENE,71,8.0,11.0,96,0.04,,,0.80,Wunderground v.1.15,2013-02-27 15:39:00,
2013-02-27 10:45:00,43.3,42.2,29.58,ENE,70,9.0,11.0,96,0.00,,,0.80,Wunderground v.1.15,2013-02-27 15:45:00,
2013-02-27 10:50:00,43.3,42.2,29.58,ESE,108,8.0,9.0,96,0.00,,,0.81,Wunderground v.1.15,2013-02-27 15:50:00,
2013-02-27 10:56:00,43.2,42.1,29.57,East,88,8.0,14.0,96,0.00,,,0.81,Wunderground v.1.15,2013-02-27 15:56:00,
2013-02-27 11:01:00,43.1,42.0,29.57,East,85,8.0,10.0,96,0.00,,,0.81,Wunderground v.1.15,2013-02-27 16:01:00,
2013-02-27 11:07:00,43.0,41.9,29.56,East,96,8.0,12.0,96,0.00,,,0.81,Wunderground v.1.15,2013-02-27 16:07:00,
2013-02-27 11:12:00,43.0,41.9,29.55,WNW,286,7.0,8.0,96,0.00,,,0.82,Wunderground v.1.15,2013-02-27 16:12:00,
2013-02-27 11:18:00,42.9,41.8,29.56,ENE,71,7.0,11.0,96,0.00,,,0.82,Wunderground v.1.15,2013-02-27 16:18:00,
2013-02-27 11:24:00,42.9,41.8,29.55,East,90,8.0,10.0,96,0.00,,,0.82,Wunderground v.1.15,2013-02-27 16:24:00,
2013-02-27 11:30:00,42.8,41.7,29.55,ENE,61,8.0,9.0,96,0.00,,,0.82,Wunderground v.1.15,2013-02-27 16:30:00,
2013-02-27 11:35:00,42.7,41.6,29.55,ENE,67,8.0,9.0,96,0.00,,,0.82,Wunderground v.1.15,2013-02-27 16:35:00,
2013-02-27 11:41:00,42.6,41.5,29.55,ENE,57,8.0,13.0,96,0.00,,,0.82,Wunderground v.1.15,2013-02-27 16:41:00,
2013-02-27 11:47:00,42.6,41.5,29.55,ENE,74,7.0,13.0,96,0.00,,,0.82,Wunderground v.1.15,2013-02-27 16:47:00,
2013-02-27 11:52:00,42.6,41.5,29.55,East,91,7.0,10.0,96,0.00,,,0.83,Wunderground v.1.15,2013-02-27 16:52:00,
2013-02-27 11:58:00,42.6,41.5,29.54,East,96,7.0,10.0,96,0.00,,,0.83,Wunderground v.1.15,2013-02-27 16:58:00,
2013-02-27 12:03:00,42.6,41.5,29.54,ENE,76,8.0,12.0,96,0.00,,,0.83,Wunderground v.1.15,2013-02-27 17:03:00,
2013-02-27 12:09:00,42.6,41.8,29.53,East,79,8.0,12.0,97,0.00,,,0.83,Wunderground v.1.15,2013-02-27 17:09:00,
2013-02-27 12:14:00,42.6,41.5,29.53,East,85,7.0,13.0,96,0.00,,,0.83,Wunderground v.1.15,2013-02-27 17:14:00,
2013-02-27 12:20:00,42.4,41.3,29.52,East,101,8.0,10.0,96,0.00,,,0.83,Wunderground v.1.15,2013-02-27 17:20:00,
2013-02-27 12:26:00,42.4,41.3,29.52,NE,54,9.0,10.0,96,0.00,,,0.83,Wunderground v.1.15,2013-02-27 17:26:00,
2013-02-27 12:31:00,42.4,41.3,29.52,ESE,103,8.0,8.0,96,0.00,,,0.83,Wunderground v.1.15,2013-02-27 17:31:00,
2013-02-27 12:37:00,42.3,41.2,29.52,NE,51,7.0,8.0,96,0.00,,,0.83,Wunderground v.1.15,2013-02-27 17:37:00,
2013-02-27 12:43:00,42.4,41.6,29.51,East,90,7.0,11.0,97,0.00,,,0.83,Wunderground v.1.15,2013-02-27 17:43:00,
2013-02-27 12:48:00,42.5,41.7,29.51,ENE,71,8.0,11.0,97,0.00,,,0.83,Wunderground v.1.15,2013-02-27 17:48:00,
2013-02-27 12:54:00,42.5,41.7,29.51,East,88,8.0,12.0,97,0.00,,,0.83,Wunderground v.1.15,2013-02-27 17:54:00,
2013-02-27 13:00:00,42.5,41.7,29.50,ENE,74,7.0,8.0,97,0.00,,,0.83,Wunderground v.1.15,2013-02-27 18:00:00,
2013-02-27 13:06:00,42.4,41.6,29.50,East,83,7.0,10.0,97,0.00,,,0.83,Wunderground v.1.15,2013-02-27 18:06:00,
2013-02-27 13:12:00,42.3,41.5,29.49,ENE,65,8.0,11.0,97,0.00,,,0.83,Wunderground v.1.15,2013-02-27 18:12:00,
2013-02-27 13:18:00,42.3,41.5,29.49,ENE,69,9.0,11.0,97,0.00,,,0.83,Wunderground v.1.15,2013-02-27 18:18:00,
2013-02-27 13:23:00,42.3,41.5,29.49,East,88,8.0,9.0,97,0.00,,,0.83,Wunderground v.1.15,2013-02-27 18:23:00,
2013-02-27 13:29:00,42.2,41.7,29.48,East,96,8.0,13.0,98,0.00,,,0.83,Wunderground v.1.15,2013-02-27 18:29:00,
2013-02-27 13:34:00,42.2,41.7,29.49,ENE,61,7.0,8.0,98,0.00,,,0.83,Wunderground v.1.15,2013-02-27 18:34:00,
2013-02-27 13:39:00,42.2,41.7,29.50,ENE,78,7.0,11.0,98,0.00,,,0.83,Wunderground v.1.15,2013-02-27 18:39:00,
2013-02-27 13:45:00,42.1,41.6,29.50,ENE,63,4.0,6.0,98,0.00,,,0.83,Wunderground v.1.15,2013-02-27 18:45:00,
2013-02-27 13:50:00,42.1,41.6,29.50,ENE,76,4.0,4.0,98,0.00,,,0.83,Wunderground v.1.15,2013-02-27 18:50:00,
2013-02-27 13:56:00,42.1,41.6,29.51,NE,51,4.0,5.0,98,0.00,,,0.83,Wunderground v.1.15,2013-02-27 18:56:00,
2013-02-27 14:02:00,42.1,41.6,29.50,ESE,118,4.0,7.0,98,0.00,,,0.83,Wunderground v.1.15,2013-02-27 19:02:00,
2013-02-27 14:07:00,42.1,41.6,29.50,East,96,4.0,7.0,98,0.00,,,0.83,Wunderground v.1.15,2013-02-27 19:07:00,
2013-02-27 14:13:00,42.3,41.8,29.50,East,83,4.0,6.0,98,0.00,,,0.83,Wunderground v.1.15,2013-02-27 19:13:00,
2013-02-27 14:18:00,42.3,41.8,29.50,East,99,5.0,6.0,98,0.00,,,0.83,Wunderground v.1.15,2013-02-27 19:18:00,
2013-02-27 14:24:00,42.4,41.9,29.50,ENE,70,4.0,9.0,98,0.00,,,0.83,Wunderground v.1.15,2013-02-27 19:24:00,
2013-02-27 14:30:00,42.4,41.9,29.51,East,93,4.0,6.0,98,0.00,,,0.83,Wunderground v.1.15,2013-02-27 19:30:00,
2013-02-27 14:36:00,42.4,41.9,29.51,East,86,4.0,6.0,98,0.00,,,0.83,Wunderground v.1.15,2013-02-27 19:36:00,
2013-02-27 14:42:00,42.4,41.9,29.51,East,90,3.0,4.0,98,0.00,,,0.83,Wunderground v.1.15,2013-02-27 19:42:00,
2013-02-27 14:47:00,42.4,41.9,29.50,ENE,78,3.0,4.0,98,0.00,,,0.83,Wunderground v.1.15,2013-02-27 19:47:00,
2013-02-27 14:53:00,42.5,42.0,29.51,ESE,112,2.0,4.0,98,0.00,,,0.83,Wunderground v.1.15,2013-02-27 19:53:00,
2013-02-27 14:59:00,42.5,42.0,29.50,ESE,109,1.0,4.0,98,0.00,,,0.83,Wunderground v.1.15,2013-02-27 19:59:00,
2013-02-27 15:05:00,42.6,42.1,29.51,ESE,111,2.0,4.0,98,0.00,,,0.83,Wunderground v.1.15,2013-02-27 20:05:00,
2013-02-27 15:11:00,42.6,42.1,29.51,ESE,107,2.0,2.0,98,0.00,,,0.83,Wunderground v.1.15,2013-02-27 20:11:00,
2013-02-27 15:17:00,42.7,42.2,29.51,East,94,2.0,4.0,98,0.00,,,0.83,Wunderground v.1.15,2013-02-27 20:17:00,
2013-02-27 15:22:00,42.7,42.2,29.51,East,94,2.0,3.0,98,0.00,,,0.83,Wunderground v.1.15,2013-02-27 20:22:00,
2013-02-27 15:27:00,42.7,42.2,29.50,East,94,1.0,3.0,98,0.00,,,0.83,Wunderground v.1.15,2013-02-27 20:27:00,
2013-02-27 15:33:00,42.7,42.2,29.50,East,86,1.0,2.0,98,0.00,,,0.83,Wunderground v.1.15,2013-02-27 20:33:00,
2013-02-27 15:39:00,42.8,42.3,29.51,ENE,67,1.0,2.0,98,0.00,,,0.83,Wunderground v.1.15,2013-02-27 20:39:00,
2013-02-27 15:44:00,42.8,42.3,29.51,WSW,240,1.0,2.0,98,0.00,,,0.83,Wunderground v.1.15,2013-02-27 20:44:00,
2013-02-27 15:50:00,42.8,42.3,29.51,ESE,111,2.0,3.0,98,0.00,,,0.83,Wunderground v.1.15,2013-02-27 20:50:00,
2013-02-27 15:56:00,42.7,42.2,29.51,East,100,3.0,3.0,98,0.00,,,0.83,Wunderground v.1.15,2013-02-27 20:56:00,
2013-02-27 16:02:00,42.7,42.2,29.51,East,90,2.0,2.0,98,0.00,,,0.83,Wunderground v.1.15,2013-02-27 21:02:00,
2013-02-27 16:08:00,42.7,42.2,29.52,SW,232,1.0,2.0,98,0.00,,,0.83,Wunderground v.1.15,2013-02-27 21:08:00,
2013-02-27 16:14:00,42.7,42.2,29.52,ENE,59,1.0,2.0,98,0.00,,,0.83,Wunderground v.1.15,2013-02-27 21:14:00,
2013-02-27 16:19:00,42.8,42.3,29.53,ENE,65,0.0,2.0,98,0.00,,,0.83,Wunderground v.1.15,2013-02-27 21:19:00,
2013-02-27 16:25:00,42.9,42.4,29.53,ENE,65,0.0,2.0,98,0.00,,,0.83,Wunderground v.1.15,2013-02-27 21:25:00,
2013-02-27 16:31:00,42.8,42.3,29.53,ENE,65,0.0,0.0,98,0.00,,,0.83,Wunderground v.1.15,2013-02-27 21:31:00,
2013-02-27 16:37:00,43.0,42.5,29.54,ENE,65,0.0,1.0,98,0.00,,,0.83,Wunderground v.1.15,2013-02-27 21:37:00,
2013-02-27 16:43:00,43.0,42.5,29.54,ENE,65,0.0,0.0,98,0.00,,,0.83,Wunderground v.1.15,2013-02-27 21:43:00,
2013-02-27 16:49:00,43.0,42.2,29.54,WNW,292,1.0,3.0,97,0.00,,,0.83,Wunderground v.1.15,2013-02-27 21:49:00,
2013-02-27 16:54:00,43.0,42.2,29.54,WNW,292,1.0,1.0,97,0.00,,,0.83,Wunderground v.1.15,2013-02-27 21:54:00,
2013-02-27 16:59:00,43.1,42.3,29.54,WNW,292,0.0,3.0,97,0.00,,,0.83,Wunderground v.1.15,2013-02-27 21:59:00,
2013-02-27 17:04:00,43.2,42.4,29.55,WNW,292,1.0,1.0,97,0.00,,,0.84,Wunderground v.1.15,2013-02-27 22:04:00,
2013-02-27 17:10:00,43.2,42.4,29.55,WNW,292,0.0,0.0,97,0.00,,,0.84,Wunderground v.1.15,2013-02-27 22:10:00,
2013-02-27 17:16:00,43.4,42.6,29.54,WNW,292,0.0,0.0,97,0.00,,,0.84,Wunderground v.1.15,2013-02-27 22:16:00,
2013-02-27 17:22:00,43.4,42.6,29.55,WNW,292,0.0,0.0,97,0.00,,,0.84,Wunderground v.1.15,2013-02-27 22:22:00,
2013-02-27 17:28:00,43.4,42.6,29.55,WNW,292,0.0,0.0,97,0.00,,,0.84,Wunderground v.1.15,2013-02-27 22:28:00,
2013-02-27 17:34:00,43.5,42.4,29.56,WNW,292,0.0,0.0,96,0.00,,,0.84,Wunderground v.1.15,2013-02-27 22:34:00,
2013-02-27 17:39:00,43.6,42.5,29.56,WNW,292,0.0,0.0,96,0.00,,,0.84,Wunderground v.1.15,2013-02-27 22:39:00,
2013-02-27 17:45:00,43.7,42.6,29.56,WNW,292,0.0,0.0,96,0.00,,,0.84,Wunderground v.1.15,2013-02-27 22:45:00,
2013-02-27 17:51:00,43.7,42.6,29.56,WNW,292,0.0,0.0,96,0.00,,,0.84,Wunderground v.1.15,2013-02-27 22:51:00,
2013-02-27 17:57:00,43.8,42.7,29.57,WNW,292,0.0,0.0,96,0.00,,,0.84,Wunderground v.1.15,2013-02-27 22:57:00,
2013-02-27 18:02:00,43.9,42.8,29.57,WNW,292,0.0,0.0,96,0.00,,,0.84,Wunderground v.1.15,2013-02-27 23:02:00,
2013-02-27 18:09:00,43.8,42.7,29.57,West,275,1.0,3.0,96,0.00,,,0.84,Wunderground v.1.15,2013-02-27 23:09:00,
2013-02-27 18:14:00,43.8,42.7,29.58,West,275,1.0,1.0,96,0.00,,,0.84,Wunderground v.1.15,2013-02-27 23:14:00,
2013-02-27 18:19:00,43.7,42.6,29.58,SW,233,0.0,1.0,96,0.00,,,0.84,Wunderground v.1.15,2013-02-27 23:19:00,
2013-02-27 18:24:00,43.6,42.5,29.58,SW,233,0.0,0.0,96,0.00,,,0.84,Wunderground v.1.15,2013-02-27 23:24:00,
2013-02-27 18:30:00,43.5,42.4,29.58,SW,233,0.0,2.0,96,0.00,,,0.84,Wunderground v.1.15,2013-02-27 23:30:00,
2013-02-27 18:36:00,43.6,42.5,29.58,SW,233,0.0,2.0,96,0.00,,,0.84,Wunderground v.1.15,2013-02-27 23:36:00,
2013-02-27 18:42:00,43.6,42.8,29.59,West,263,1.0,2.0,97,0.00,,,0.84,Wunderground v.1.15,2013-02-27 23:42:00,
2013-02-27 18:48:00,43.6,42.8,29.59,WSW,242,1.0,3.0,97,0.00,,,0.84,Wunderground v.1.15,2013-02-27 23:48:00,
2013-02-27 18:53:00,43.5,42.7,29.59,West,265,3.0,4.0,97,0.00,,,0.84,Wunderground v.1.15,2013-02-27 23:53:00,
2013-02-27 18:59:00,43.5,42.7,29.59,SW,219,3.0,4.0,97,0.00,,,0.84,Wunderground v.1.15,2013-02-27 23:59:00,
2013-02-27 19:04:00,43.5,42.7,29.59,WSW,244,2.0,3.0,97,0.00,,,0.84,Wunderground v.1.15,2013-02-28 00:04:00,
2013-02-27 19:09:00,43.5,42.4,29.59,WSW,256,1.0,3.0,96,0.00,,,0.84,Wunderground v.1.15,2013-02-28 00:09:00,
2013-02-27 19:14:00,43.4,42.3,29.59,SW,223,1.0,4.0,96,0.00,,,0.84,Wunderground v.1.15,2013-02-28 00:14:00,
2013-02-27 19:20:00,43.1,41.5,29.59,West,271,3.0,5.0,94,0.00,,,0.84,Wunderground v.1.15,2013-02-28 00:20:00,
2013-02-27 19:26:00,42.7,40.8,29.59,NNW,338,4.0,6.0,93,0.00,,,0.84,Wunderground v.1.15,2013-02-28 00:26:00,
2013-02-27 19:32:00,42.4,40.5,29.60,West,276,3.0,4.0,93,0.00,,,0.84,Wunderground v.1.15,2013-02-28 00:32:00,
2013-02-27 19:37:00,42.1,39.9,29.59,WNW,296,3.0,6.0,92,0.00,,,0.84,Wunderground v.1.15,2013-02-28 00:37:00,
2013-02-27 19:43:00,41.8,39.6,29.60,WNW,283,3.0,4.0,92,0.00,,,0.84,Wunderground v.1.15,2013-02-28 00:43:00,
2013-02-27 19:49:00,41.5,39.3,29.60,West,281,2.0,5.0,92,0.00,,,0.84,Wunderground v.1.15,2013-02-28 00:49:00,
2013-02-27 19:54:00,41.2,39.1,29.60,WNW,298,3.0,6.0,92,0.00,,,0.84,Wunderground v.1.15,2013-02-28 00:54:00,
2013-02-27 20:00:00,41.0,38.9,29.60,NW,304,3.0,4.0,92,0.00,,,0.84,Wunderground v.1.15,2013-02-28 01:00:00,
2013-02-27 20:06:00,40.9,38.8,29.60,NNW,329,3.0,4.0,92,0.00,,,0.84,Wunderground v.1.15,2013-02-28 01:06:00,
2013-02-27 20:12:00,40.7,38.3,29.60,West,275,2.0,4.0,91,0.00,,,0.84,Wunderground v.1.15,2013-02-28 01:12:00,
2013-02-27 20:17:00,40.5,38.1,29.61,WSW,257,3.0,6.0,91,0.00,,,0.84,Wunderground v.1.15,2013-02-28 01:17:00,
2013-02-27 20:23:00,40.4,38.0,29.61,WSW,250,2.0,3.0,91,0.00,,,0.84,Wunderground v.1.15,2013-02-28 01:23:00,
2013-02-27 20:29:00,40.3,37.9,29.61,West,265,1.0,3.0,91,0.00,,,0.84,Wunderground v.1.15,2013-02-28 01:29:00,
2013-02-27 20:35:00,40.3,37.9,29.61,WSW,250,1.0,3.0,91,0.00,,,0.84,Wunderground v.1.15,2013-02-28 01:35:00,
2013-02-27 20:40:00,40.2,37.8,29.62,WSW,246,2.0,3.0,91,0.00,,,0.84,Wunderground v.1.15,2013-02-28 01:40:00,
2013-02-27 20:46:00,40.0,37.6,29.62,WNW,284,2.0,4.0,91,0.00,,,0.84,Wunderground v.1.15,2013-02-28 01:46:00,
2013-02-27 20:52:00,39.9,37.5,29.62,West,265,3.0,6.0,91,0.00,,,0.84,Wunderground v.1.15,2013-02-28 01:52:00,
2013-02-27 20:58:00,39.7,37.3,29.62,WSW,243,3.0,6.0,91,0.00,,,0.84,Wunderground v.1.15,2013-02-28 01:58:00,
2013-02-27 21:03:00,39.7,37.0,29.62,SW,223,4.0,6.0,90,0.00,,,0.84,Wunderground v.1.15,2013-02-28 02:03:00,
2013-02-27 21:09:00,39.8,37.1,29.63,West,259,4.0,6.0,90,0.00,,,0.84,Wunderground v.1.15,2013-02-28 02:09:00,
2013-02-27 21:14:00,39.8,37.1,29.63,SW,230,3.0,4.0,90,0.00,,,0.84,Wunderground v.1.15,2013-02-28 02:14:00,
2013-02-27 21:19:00,39.8,37.1,29.63,SW,225,3.0,6.0,90,0.00,,,0.84,Wunderground v.1.15,2013-02-28 02:19:00,
2013-02-27 21:25:00,39.9,36.9,29.63,WSW,258,3.0,4.0,89,0.00,,,0.84,Wunderground v.1.15,2013-02-28 02:25:00,
2013-02-27 21:31:00,39.8,36.8,29.63,West,278,3.0,3.0,89,0.00,,,0.84,Wunderground v.1.15,2013-02-28 02:31:00,
2013-02-27 21:37:00,39.7,36.7,29.63,WSW,252,3.0,7.0,89,0.00,,,0.84,Wunderground v.1.15,2013-02-28 02:37:00,
2013-02-27 21:43:00,39.7,36.7,29.63,WNW,288,4.0,5.0,89,0.00,,,0.84,Wunderground v.1.15,2013-02-28 02:43:00,
2013-02-27 21:48:00,39.6,36.6,29.63,WSW,250,4.0,5.0,89,0.00,,,0.84,Wunderground v.1.15,2013-02-28 02:48:00,
2013-02-27 21:54:00,39.5,36.5,29.63,West,278,3.0,5.0,89,0.00,,,0.84,Wunderground v.1.15,2013-02-28 02:54:00,
2013-02-27 21:59:00,39.5,36.2,29.63,West,279,4.0,8.0,88,0.00,,,0.84,Wunderground v.1.15,2013-02-28 02:59:00,
2013-02-27 22:04:00,39.5,36.2,29.63,SW,233,3.0,4.0,88,0.00,,,0.84,Wunderground v.1.15,2013-02-28 03:04:00,
2013-02-27 22:10:00,39.5,36.2,29.63,West,264,3.0,3.0,88,0.00,,,0.84,Wunderground v.1.15,2013-02-28 03:10:00,
2013-02-27 22:16:00,39.6,36.3,29.63,West,273,3.0,3.0,88,0.00,,,0.84,Wunderground v.1.15,2013-02-28 03:16:00,
2013-02-27 22:21:00,39.5,36.2,29.62,West,261,3.0,5.0,88,0.00,,,0.84,Wunderground v.1.15,2013-02-28 03:21:00,
2013-02-27 22:26:00,39.3,36.0,29.62,WNW,298,3.0,5.0,88,0.00,,,0.84,Wunderground v.1.15,2013-02-28 03:26:00,
2013-02-27 22:32:00,39.2,35.9,29.63,WSW,252,3.0,3.0,88,0.00,,,0.84,Wunderground v.1.15,2013-02-28 03:32:00,
2013-02-27 22:38:00,39.2,35.9,29.62,West,280,3.0,4.0,88,0.00,,,0.84,Wunderground v.1.15,2013-02-28 03:38:00,
2013-02-27 22:44:00,39.1,35.8,29.62,West,273,3.0,5.0,88,0.00,,,0.84,Wunderground v.1.15,2013-02-28 03:44:00,
2013-02-27 22:50:00,39.1,35.8,29.62,WNW,284,4.0,4.0,88,0.00,,,0.84,Wunderground v.1.15,2013-02-28 03:50:00,
2013-02-27 22:56:00,39.2,35.9,29.62,WNW,291,3.0,4.0,88,0.00,,,0.84,Wunderground v.1.15,2013-02-28 03:56:00,
2013-02-27 23:01:00,39.2,35.9,29.61,WNW,284,3.0,3.0,88,0.00,,,0.84,Wunderground v.1.15,2013-02-28 04:01:00,
2013-02-27 23:07:00,39.2,35.9,29.61,WNW,286,2.0,4.0,88,0.00,,,0.84,Wunderground v.1.15,2013-02-28 04:07:00,
2013-02-27 23:13:00,39.2,35.9,29.61,WNW,284,2.0,3.0,88,0.00,,,0.84,Wunderground v.1.15,2013-02-28 04:13:00,
2013-02-27 23:19:00,38.8,35.3,29.61,West,264,2.0,3.0,87,0.00,,,0.84,Wunderground v.1.15,2013-02-28 04:19:00,
2013-02-27 23:25:00,38.5,35.3,29.61,West,281,2.0,4.0,88,0.00,,,0.84,Wunderground v.1.15,2013-02-28 04:25:00,
2013-02-27 23:31:00,38.5,35.8,29.61,WNW,297,2.0,3.0,90,0.00,,,0.84,Wunderground v.1.15,2013-02-28 04:31:00,
2013-02-27 23:37:00,38.7,36.0,29.60,NW,315,2.0,3.0,90,0.00,,,0.84,Wunderground v.1.15,2013-02-28 04:37:00,
2013-02-27 23:43:00,38.7,35.7,29.60,West,271,2.0,3.0,89,0.00,,,0.84,Wunderground v.1.15,2013-02-28 04:43:00,
2013-02-27 23:49:00,38.6,35.6,29.60,WNW,286,2.0,3.0,89,0.00,,,0.84,Wunderground v.1.15,2013-02-28 04:49:00,
2013-02-27 23:55:00,38.6,35.6,29.59,WNW,288,1.0,2.0,89,0.00,,,0.84,Wunderground v.1.15,2013-02-28 04:55:00,